sensor_id;sensor_type;location;lat;lon;timestamp;temperature;humidity
949;DHT22;461;51.436;7.312;2023-05-23T00:00:58;16.20;99.90
949;DHT22;461;51.436;7.312;2023-05-23T00:03:26;16.20;99.90
949;DHT22;461;51.436;7.312;2023-05-23T00:05:53;16.20;99.90
949;DHT22;461;51.436;7.312;2023-05-23T00:08:20;16.20;99.90
949;DHT22;461;51.436;7.312;2023-05-23T00:10:46;16.10;99.90
949;DHT22;461;51.436;7.312;2023-05-23T00:13:12;16.20;99.90
949;DHT22;461;51.436;7.312;2023-05-23T00:15:48;16.30;99.90
949;DHT22;461;51.436;7.312;2023-05-23T00:18:14;16.20;99.90
949;DHT22;461;51.436;7.312;2023-05-23T00:20:41;16.20;99.90
949;DHT22;461;51.436;7.312;2023-05-23T00:23:08;16.00;99.90
949;DHT22;461;51.436;7.312;2023-05-23T00:25:35;16.10;99.90
949;DHT22;461;51.436;7.312;2023-05-23T00:28:02;16.10;99.90
949;DHT22;461;51.436;7.312;2023-05-23T00:30:29;16.00;99.90
949;DHT22;461;51.436;7.312;2023-05-23T00:32:56;16.10;99.90
949;DHT22;461;51.436;7.312;2023-05-23T00:35:22;16.10;99.90
949;DHT22;461;51.436;7.312;2023-05-23T00:37:51;16.10;99.90
949;DHT22;461;51.436;7.312;2023-05-23T00:40:17;16.10;99.90
949;DHT22;461;51.436;7.312;2023-05-23T00:42:43;16.00;99.90
949;DHT22;461;51.436;7.312;2023-05-23T00:45:09;15.90;99.90
949;DHT22;461;51.436;7.312;2023-05-23T00:47:38;16.00;99.90
949;DHT22;461;51.436;7.312;2023-05-23T00:50:08;16.00;99.90
949;DHT22;461;51.436;7.312;2023-05-23T00:52:36;15.90;99.90
949;DHT22;461;51.436;7.312;2023-05-23T00:55:03;15.90;99.90
949;DHT22;461;51.436;7.312;2023-05-23T00:57:29;16.00;99.90
949;DHT22;461;51.436;7.312;2023-05-23T00:59:55;16.00;99.90
949;DHT22;461;51.436;7.312;2023-05-23T01:02:21;16.00;99.90
949;DHT22;461;51.436;7.312;2023-05-23T01:04:50;15.90;99.90
949;DHT22;461;51.436;7.312;2023-05-23T01:07:19;15.80;99.90
949;DHT22;461;51.436;7.312;2023-05-23T01:09:45;15.90;99.90
949;DHT22;461;51.436;7.312;2023-05-23T01:15:16;15.90;99.90
949;DHT22;461;51.436;7.312;2023-05-23T01:20:21;15.90;99.90
949;DHT22;461;51.436;7.312;2023-05-23T01:28:02;15.70;99.90
949;DHT22;461;51.436;7.312;2023-05-23T01:30:31;15.60;99.90
949;DHT22;461;51.436;7.312;2023-05-23T01:33:00;15.70;99.90
949;DHT22;461;51.436;7.312;2023-05-23T01:35:27;15.80;99.90
949;DHT22;461;51.436;7.312;2023-05-23T01:37:54;15.80;99.90
949;DHT22;461;51.436;7.312;2023-05-23T01:40:20;15.80;99.90
949;DHT22;461;51.436;7.312;2023-05-23T01:42:46;15.80;99.90
949;DHT22;461;51.436;7.312;2023-05-23T01:45:13;15.80;99.90
949;DHT22;461;51.436;7.312;2023-05-23T01:47:40;15.80;99.90
949;DHT22;461;51.436;7.312;2023-05-23T01:50:07;15.80;99.90
949;DHT22;461;51.436;7.312;2023-05-23T01:52:33;15.70;99.90
949;DHT22;461;51.436;7.312;2023-05-23T01:54:59;15.70;99.90
949;DHT22;461;51.436;7.312;2023-05-23T01:57:26;15.70;99.90
949;DHT22;461;51.436;7.312;2023-05-23T01:59:53;15.70;99.90
949;DHT22;461;51.436;7.312;2023-05-23T02:02:20;15.70;99.90
949;DHT22;461;51.436;7.312;2023-05-23T02:04:45;15.80;99.90
949;DHT22;461;51.436;7.312;2023-05-23T02:07:11;15.80;99.90
949;DHT22;461;51.436;7.312;2023-05-23T02:09:37;15.80;99.90
949;DHT22;461;51.436;7.312;2023-05-23T02:12:02;15.80;99.90
949;DHT22;461;51.436;7.312;2023-05-23T02:14:28;15.80;99.90
949;DHT22;461;51.436;7.312;2023-05-23T02:16:54;15.80;99.90
949;DHT22;461;51.436;7.312;2023-05-23T02:19:19;15.80;99.90
949;DHT22;461;51.436;7.312;2023-05-23T02:21:45;15.80;99.90
949;DHT22;461;51.436;7.312;2023-05-23T02:24:11;15.80;99.90
949;DHT22;461;51.436;7.312;2023-05-23T02:26:36;15.90;99.90
949;DHT22;461;51.436;7.312;2023-05-23T02:29:02;15.80;99.90
949;DHT22;461;51.436;7.312;2023-05-23T02:31:28;15.80;99.90
949;DHT22;461;51.436;7.312;2023-05-23T02:33:54;15.90;99.90
949;DHT22;461;51.436;7.312;2023-05-23T02:36:19;15.80;99.90
949;DHT22;461;51.436;7.312;2023-05-23T02:38:46;15.80;99.90
949;DHT22;461;51.436;7.312;2023-05-23T02:41:11;15.80;99.90
949;DHT22;461;51.436;7.312;2023-05-23T02:43:37;15.80;99.90
949;DHT22;461;51.436;7.312;2023-05-23T02:46:03;15.80;99.90
949;DHT22;461;51.436;7.312;2023-05-23T02:48:29;15.80;99.90
949;DHT22;461;51.436;7.312;2023-05-23T02:50:55;15.70;99.90
949;DHT22;461;51.436;7.312;2023-05-23T02:53:21;15.80;99.90
949;DHT22;461;51.436;7.312;2023-05-23T02:55:47;15.70;99.90
949;DHT22;461;51.436;7.312;2023-05-23T02:58:12;15.80;99.90
949;DHT22;461;51.436;7.312;2023-05-23T03:00:38;15.70;99.90
949;DHT22;461;51.436;7.312;2023-05-23T03:03:04;15.70;99.90
949;DHT22;461;51.436;7.312;2023-05-23T03:05:29;15.60;99.90
949;DHT22;461;51.436;7.312;2023-05-23T03:07:55;15.60;99.90
949;DHT22;461;51.436;7.312;2023-05-23T03:10:22;15.60;99.90
949;DHT22;461;51.436;7.312;2023-05-23T03:12:47;15.70;99.90
949;DHT22;461;51.436;7.312;2023-05-23T03:15:13;15.70;99.90
949;DHT22;461;51.436;7.312;2023-05-23T03:17:39;15.50;99.90
949;DHT22;461;51.436;7.312;2023-05-23T03:20:05;15.50;99.90
949;DHT22;461;51.436;7.312;2023-05-23T03:22:34;15.50;99.90
949;DHT22;461;51.436;7.312;2023-05-23T03:25:00;15.60;99.90
949;DHT22;461;51.436;7.312;2023-05-23T03:27:26;15.60;99.90
949;DHT22;461;51.436;7.312;2023-05-23T03:29:52;15.60;99.90
949;DHT22;461;51.436;7.312;2023-05-23T03:32:17;15.60;99.90
949;DHT22;461;51.436;7.312;2023-05-23T03:34:43;15.60;99.90
949;DHT22;461;51.436;7.312;2023-05-23T03:37:09;15.50;99.90
949;DHT22;461;51.436;7.312;2023-05-23T03:39:35;15.50;99.90
949;DHT22;461;51.436;7.312;2023-05-23T03:42:01;15.40;99.90
949;DHT22;461;51.436;7.312;2023-05-23T03:44:26;15.50;99.90
949;DHT22;461;51.436;7.312;2023-05-23T03:46:52;15.50;99.90
949;DHT22;461;51.436;7.312;2023-05-23T03:49:18;15.50;99.90
949;DHT22;461;51.436;7.312;2023-05-23T03:51:44;15.50;99.90
949;DHT22;461;51.436;7.312;2023-05-23T03:54:09;15.50;99.90
949;DHT22;461;51.436;7.312;2023-05-23T03:56:35;15.40;99.90
949;DHT22;461;51.436;7.312;2023-05-23T03:59:01;15.40;99.90
949;DHT22;461;51.436;7.312;2023-05-23T04:01:26;15.50;99.90
949;DHT22;461;51.436;7.312;2023-05-23T04:03:52;15.50;99.90
949;DHT22;461;51.436;7.312;2023-05-23T04:06:18;15.50;99.90
949;DHT22;461;51.436;7.312;2023-05-23T04:08:44;15.40;99.90
949;DHT22;461;51.436;7.312;2023-05-23T04:11:10;15.30;99.90
949;DHT22;461;51.436;7.312;2023-05-23T04:13:36;15.40;99.90
949;DHT22;461;51.436;7.312;2023-05-23T04:16:02;15.30;99.90
949;DHT22;461;51.436;7.312;2023-05-23T04:18:31;15.30;99.90
949;DHT22;461;51.436;7.312;2023-05-23T04:20:58;15.30;99.90
949;DHT22;461;51.436;7.312;2023-05-23T04:23:24;15.30;99.90
949;DHT22;461;51.436;7.312;2023-05-23T04:25:50;15.30;99.90
949;DHT22;461;51.436;7.312;2023-05-23T04:28:16;15.30;99.90
949;DHT22;461;51.436;7.312;2023-05-23T04:30:42;15.20;99.90
949;DHT22;461;51.436;7.312;2023-05-23T04:33:08;15.20;99.90
949;DHT22;461;51.436;7.312;2023-05-23T04:35:34;15.20;99.90
949;DHT22;461;51.436;7.312;2023-05-23T04:38:03;15.30;99.90
949;DHT22;461;51.436;7.312;2023-05-23T04:40:29;15.20;99.90
949;DHT22;461;51.436;7.312;2023-05-23T04:42:56;15.20;99.90
949;DHT22;461;51.436;7.312;2023-05-23T04:45:22;15.20;99.90
949;DHT22;461;51.436;7.312;2023-05-23T04:47:48;15.20;99.90
949;DHT22;461;51.436;7.312;2023-05-23T04:50:14;15.20;99.90
949;DHT22;461;51.436;7.312;2023-05-23T04:52:41;15.10;99.90
949;DHT22;461;51.436;7.312;2023-05-23T04:55:07;15.10;99.90
949;DHT22;461;51.436;7.312;2023-05-23T04:57:36;15.10;99.90
949;DHT22;461;51.436;7.312;2023-05-23T05:00:03;15.20;99.90
949;DHT22;461;51.436;7.312;2023-05-23T05:02:35;15.30;99.90
949;DHT22;461;51.436;7.312;2023-05-23T05:05:02;15.40;99.90
949;DHT22;461;51.436;7.312;2023-05-23T05:07:31;15.40;99.90
949;DHT22;461;51.436;7.312;2023-05-23T05:09:57;15.40;99.90
949;DHT22;461;51.436;7.312;2023-05-23T05:12:23;15.40;99.90
949;DHT22;461;51.436;7.312;2023-05-23T05:14:48;15.40;99.90
949;DHT22;461;51.436;7.312;2023-05-23T05:17:14;15.40;99.90
949;DHT22;461;51.436;7.312;2023-05-23T05:19:40;15.40;99.90
949;DHT22;461;51.436;7.312;2023-05-23T05:22:05;15.40;99.90
949;DHT22;461;51.436;7.312;2023-05-23T05:24:32;15.40;99.90
949;DHT22;461;51.436;7.312;2023-05-23T05:26:58;15.50;99.90
949;DHT22;461;51.436;7.312;2023-05-23T05:29:24;15.50;99.90
949;DHT22;461;51.436;7.312;2023-05-23T05:31:50;15.50;99.90
949;DHT22;461;51.436;7.312;2023-05-23T05:34:16;15.50;99.90
949;DHT22;461;51.436;7.312;2023-05-23T05:36:42;15.50;99.90
949;DHT22;461;51.436;7.312;2023-05-23T05:39:12;15.50;99.90
949;DHT22;461;51.436;7.312;2023-05-23T05:41:38;15.50;99.90
949;DHT22;461;51.436;7.312;2023-05-23T05:44:05;15.50;99.90
949;DHT22;461;51.436;7.312;2023-05-23T05:46:31;15.50;99.90
949;DHT22;461;51.436;7.312;2023-05-23T05:48:57;15.50;99.90
949;DHT22;461;51.436;7.312;2023-05-23T05:51:22;15.50;99.90
949;DHT22;461;51.436;7.312;2023-05-23T05:53:48;15.60;99.90
949;DHT22;461;51.436;7.312;2023-05-23T05:56:14;15.60;99.90
949;DHT22;461;51.436;7.312;2023-05-23T05:58:40;15.60;99.90
949;DHT22;461;51.436;7.312;2023-05-23T06:01:06;15.60;99.90
949;DHT22;461;51.436;7.312;2023-05-23T06:03:32;15.60;99.90
949;DHT22;461;51.436;7.312;2023-05-23T06:05:58;15.50;99.90
949;DHT22;461;51.436;7.312;2023-05-23T06:08:24;15.60;99.90
949;DHT22;461;51.436;7.312;2023-05-23T06:10:50;15.60;99.90
949;DHT22;461;51.436;7.312;2023-05-23T06:13:16;15.60;99.90
949;DHT22;461;51.436;7.312;2023-05-23T06:15:42;15.70;99.90
949;DHT22;461;51.436;7.312;2023-05-23T06:18:08;15.60;99.90
949;DHT22;461;51.436;7.312;2023-05-23T06:20:34;15.50;99.90
949;DHT22;461;51.436;7.312;2023-05-23T06:23:00;15.40;99.90
949;DHT22;461;51.436;7.312;2023-05-23T06:25:26;15.40;99.90
949;DHT22;461;51.436;7.312;2023-05-23T06:27:52;15.30;99.90
949;DHT22;461;51.436;7.312;2023-05-23T06:30:19;15.40;99.90
949;DHT22;461;51.436;7.312;2023-05-23T06:32:45;15.40;99.90
949;DHT22;461;51.436;7.312;2023-05-23T06:35:11;15.30;99.90
949;DHT22;461;51.436;7.312;2023-05-23T06:37:36;15.30;99.90
949;DHT22;461;51.436;7.312;2023-05-23T06:40:04;15.30;99.90
949;DHT22;461;51.436;7.312;2023-05-23T06:42:30;15.40;99.90
949;DHT22;461;51.436;7.312;2023-05-23T06:44:56;15.40;99.90
949;DHT22;461;51.436;7.312;2023-05-23T06:47:22;15.40;99.90
949;DHT22;461;51.436;7.312;2023-05-23T06:49:47;15.30;99.90
949;DHT22;461;51.436;7.312;2023-05-23T06:52:13;15.30;99.90
949;DHT22;461;51.436;7.312;2023-05-23T06:54:39;15.20;99.90
949;DHT22;461;51.436;7.312;2023-05-23T06:57:05;15.10;99.90
949;DHT22;461;51.436;7.312;2023-05-23T06:59:31;15.20;99.90
949;DHT22;461;51.436;7.312;2023-05-23T07:01:56;15.20;99.90
949;DHT22;461;51.436;7.312;2023-05-23T07:04:26;15.10;99.90
949;DHT22;461;51.436;7.312;2023-05-23T07:06:55;15.10;99.90
949;DHT22;461;51.436;7.312;2023-05-23T07:09:20;15.10;99.90
949;DHT22;461;51.436;7.312;2023-05-23T07:11:46;15.10;99.90
949;DHT22;461;51.436;7.312;2023-05-23T07:14:16;15.10;99.90
949;DHT22;461;51.436;7.312;2023-05-23T07:16:42;15.10;99.90
949;DHT22;461;51.436;7.312;2023-05-23T07:19:08;15.00;99.90
949;DHT22;461;51.436;7.312;2023-05-23T07:21:34;15.00;99.90
949;DHT22;461;51.436;7.312;2023-05-23T07:24:00;15.00;99.90
949;DHT22;461;51.436;7.312;2023-05-23T07:26:26;14.90;99.90
949;DHT22;461;51.436;7.312;2023-05-23T07:28:52;15.00;99.90
949;DHT22;461;51.436;7.312;2023-05-23T07:31:18;14.90;99.90
949;DHT22;461;51.436;7.312;2023-05-23T07:33:46;15.00;99.90
949;DHT22;461;51.436;7.312;2023-05-23T07:36:18;15.00;99.90
949;DHT22;461;51.436;7.312;2023-05-23T07:38:48;15.10;99.90
949;DHT22;461;51.436;7.312;2023-05-23T07:41:13;15.10;99.90
949;DHT22;461;51.436;7.312;2023-05-23T07:43:45;15.20;99.90
949;DHT22;461;51.436;7.312;2023-05-23T07:46:21;15.20;99.90
949;DHT22;461;51.436;7.312;2023-05-23T07:48:51;15.30;99.90
949;DHT22;461;51.436;7.312;2023-05-23T07:51:21;15.20;99.90
949;DHT22;461;51.436;7.312;2023-05-23T07:56:31;15.10;99.90
949;DHT22;461;51.436;7.312;2023-05-23T07:59:01;15.00;99.90
949;DHT22;461;51.436;7.312;2023-05-23T08:01:28;15.10;99.90
949;DHT22;461;51.436;7.312;2023-05-23T08:03:54;15.10;99.90
949;DHT22;461;51.436;7.312;2023-05-23T08:06:20;15.10;99.90
949;DHT22;461;51.436;7.312;2023-05-23T08:08:46;15.10;99.90
949;DHT22;461;51.436;7.312;2023-05-23T08:11:12;15.20;99.90
949;DHT22;461;51.436;7.312;2023-05-23T08:13:39;15.30;99.90
949;DHT22;461;51.436;7.312;2023-05-23T08:16:10;15.30;99.90
949;DHT22;461;51.436;7.312;2023-05-23T08:18:36;15.30;99.90
949;DHT22;461;51.436;7.312;2023-05-23T08:21:02;15.40;99.90
949;DHT22;461;51.436;7.312;2023-05-23T08:23:29;15.40;99.90
949;DHT22;461;51.436;7.312;2023-05-23T08:25:54;15.40;99.90
949;DHT22;461;51.436;7.312;2023-05-23T08:28:22;15.50;99.90
949;DHT22;461;51.436;7.312;2023-05-23T08:30:48;15.40;99.90
949;DHT22;461;51.436;7.312;2023-05-23T08:33:13;15.40;99.90
949;DHT22;461;51.436;7.312;2023-05-23T08:35:39;15.30;99.90
949;DHT22;461;51.436;7.312;2023-05-23T08:53:40;15.30;99.90
949;DHT22;461;51.436;7.312;2023-05-23T08:56:08;15.30;99.90
949;DHT22;461;51.436;7.312;2023-05-23T08:58:34;15.20;99.90
949;DHT22;461;51.436;7.312;2023-05-23T09:01:00;15.20;99.90
949;DHT22;461;51.436;7.312;2023-05-23T09:03:26;15.10;99.90
949;DHT22;461;51.436;7.312;2023-05-23T09:05:56;15.10;99.90
949;DHT22;461;51.436;7.312;2023-05-23T09:08:22;15.00;99.90
949;DHT22;461;51.436;7.312;2023-05-23T09:10:51;15.00;99.90
949;DHT22;461;51.436;7.312;2023-05-23T09:13:18;14.80;99.90
949;DHT22;461;51.436;7.312;2023-05-23T09:16:04;14.90;99.90
949;DHT22;461;51.436;7.312;2023-05-23T09:18:38;14.90;99.90
949;DHT22;461;51.436;7.312;2023-05-23T09:21:05;14.90;99.90
949;DHT22;461;51.436;7.312;2023-05-23T09:23:33;14.70;99.90
949;DHT22;461;51.436;7.312;2023-05-23T09:42:21;14.50;99.90
949;DHT22;461;51.436;7.312;2023-05-23T09:44:48;14.40;99.90
949;DHT22;461;51.436;7.312;2023-05-23T09:47:16;14.30;99.90
949;DHT22;461;51.436;7.312;2023-05-23T11:10:10;14.40;99.90
949;DHT22;461;51.436;7.312;2023-05-23T11:12:41;14.40;99.90
949;DHT22;461;51.436;7.312;2023-05-23T11:15:18;14.40;99.90
949;DHT22;461;51.436;7.312;2023-05-23T11:17:57;14.40;99.90
949;DHT22;461;51.436;7.312;2023-05-23T11:20:23;14.50;99.90
949;DHT22;461;51.436;7.312;2023-05-23T11:23:14;14.70;99.90
949;DHT22;461;51.436;7.312;2023-05-23T11:26:02;14.80;99.90
949;DHT22;461;51.436;7.312;2023-05-23T11:33:50;15.30;99.90
949;DHT22;461;51.436;7.312;2023-05-23T11:36:16;15.50;99.90
949;DHT22;461;51.436;7.312;2023-05-23T11:38:42;15.50;99.90
949;DHT22;461;51.436;7.312;2023-05-23T11:41:08;15.50;99.90
949;DHT22;461;51.436;7.312;2023-05-23T11:43:36;15.50;99.90
949;DHT22;461;51.436;7.312;2023-05-23T11:46:07;15.60;99.90
949;DHT22;461;51.436;7.312;2023-05-23T11:48:36;15.60;99.90
949;DHT22;461;51.436;7.312;2023-05-23T11:51:01;15.60;99.90
949;DHT22;461;51.436;7.312;2023-05-23T11:53:28;15.70;99.90
949;DHT22;461;51.436;7.312;2023-05-23T11:56:00;15.60;99.90
949;DHT22;461;51.436;7.312;2023-05-23T11:58:29;15.60;99.90
949;DHT22;461;51.436;7.312;2023-05-23T12:01:00;15.70;99.90
949;DHT22;461;51.436;7.312;2023-05-23T12:03:27;15.60;99.90
949;DHT22;461;51.436;7.312;2023-05-23T12:05:57;15.50;99.90
949;DHT22;461;51.436;7.312;2023-05-23T12:08:32;15.30;99.90
949;DHT22;461;51.436;7.312;2023-05-23T12:10:59;15.30;99.90
949;DHT22;461;51.436;7.312;2023-05-23T12:13:28;15.40;99.90
949;DHT22;461;51.436;7.312;2023-05-23T12:16:15;15.40;99.90
949;DHT22;461;51.436;7.312;2023-05-23T12:18:44;15.50;99.90
949;DHT22;461;51.436;7.312;2023-05-23T12:24:24;15.80;99.90
949;DHT22;461;51.436;7.312;2023-05-23T12:34:15;16.30;99.90
949;DHT22;461;51.436;7.312;2023-05-23T12:37:05;16.50;99.90
949;DHT22;461;51.436;7.312;2023-05-23T12:39:38;16.70;99.90
949;DHT22;461;51.436;7.312;2023-05-23T12:42:26;17.00;99.90
949;DHT22;461;51.436;7.312;2023-05-23T12:45:02;17.20;99.90
949;DHT22;461;51.436;7.312;2023-05-23T12:47:29;17.20;99.90
949;DHT22;461;51.436;7.312;2023-05-23T12:49:55;17.20;99.90
949;DHT22;461;51.436;7.312;2023-05-23T12:52:34;17.40;99.90
949;DHT22;461;51.436;7.312;2023-05-23T12:55:27;17.40;99.90
949;DHT22;461;51.436;7.312;2023-05-23T12:58:20;17.60;99.90
949;DHT22;461;51.436;7.312;2023-05-23T13:00:47;17.70;99.90
949;DHT22;461;51.436;7.312;2023-05-23T13:03:12;17.90;99.90
949;DHT22;461;51.436;7.312;2023-05-23T13:05:38;18.10;99.90
949;DHT22;461;51.436;7.312;2023-05-23T13:08:04;18.20;99.90
949;DHT22;461;51.436;7.312;2023-05-23T13:10:35;18.30;99.90
949;DHT22;461;51.436;7.312;2023-05-23T13:13:01;18.10;99.90
949;DHT22;461;51.436;7.312;2023-05-23T13:15:36;18.10;99.90
949;DHT22;461;51.436;7.312;2023-05-23T13:18:06;18.10;99.90
949;DHT22;461;51.436;7.312;2023-05-23T13:20:34;17.90;99.90
949;DHT22;461;51.436;7.312;2023-05-23T13:23:00;17.90;99.90
949;DHT22;461;51.436;7.312;2023-05-23T13:25:29;17.80;99.90
949;DHT22;461;51.436;7.312;2023-05-23T13:28:00;17.60;99.90
949;DHT22;461;51.436;7.312;2023-05-23T13:30:28;17.70;99.90
949;DHT22;461;51.436;7.312;2023-05-23T13:32:54;17.80;99.90
949;DHT22;461;51.436;7.312;2023-05-23T13:35:20;17.80;99.90
949;DHT22;461;51.436;7.312;2023-05-23T13:37:46;17.70;99.90
949;DHT22;461;51.436;7.312;2023-05-23T13:40:16;17.60;99.90
949;DHT22;461;51.436;7.312;2023-05-23T13:42:43;17.80;99.90
949;DHT22;461;51.436;7.312;2023-05-23T13:45:09;18.40;99.90
949;DHT22;461;51.436;7.312;2023-05-23T13:47:34;18.90;99.90
949;DHT22;461;51.436;7.312;2023-05-23T15:13:55;18.80;99.90
949;DHT22;461;51.436;7.312;2023-05-23T16:01:45;17.30;99.90
949;DHT22;461;51.436;7.312;2023-05-23T17:27:15;17.80;99.90
949;DHT22;461;51.436;7.312;2023-05-23T17:37:44;17.40;99.90
949;DHT22;461;51.436;7.312;2023-05-23T17:41:04;17.40;99.90
949;DHT22;461;51.436;7.312;2023-05-23T17:53:29;16.90;99.90
949;DHT22;461;51.436;7.312;2023-05-23T18:10:06;16.70;99.90
949;DHT22;461;51.436;7.312;2023-05-23T18:12:38;16.60;99.90
949;DHT22;461;51.436;7.312;2023-05-23T18:18:57;16.30;99.90
949;DHT22;461;51.436;7.312;2023-05-23T18:21:25;16.20;99.90
949;DHT22;461;51.436;7.312;2023-05-23T18:23:53;16.10;99.90
949;DHT22;461;51.436;7.312;2023-05-23T18:26:22;16.10;99.90
949;DHT22;461;51.436;7.312;2023-05-23T18:58:17;15.60;99.90
949;DHT22;461;51.436;7.312;2023-05-23T19:00:52;15.50;99.90
949;DHT22;461;51.436;7.312;2023-05-23T19:03:18;15.40;99.90
949;DHT22;461;51.436;7.312;2023-05-23T19:05:47;15.40;99.90
949;DHT22;461;51.436;7.312;2023-05-23T19:08:16;15.20;99.90
949;DHT22;461;51.436;7.312;2023-05-23T19:11:11;15.10;99.90
949;DHT22;461;51.436;7.312;2023-05-23T19:13:58;15.10;99.90
949;DHT22;461;51.436;7.312;2023-05-23T19:22:38;14.90;99.90
949;DHT22;461;51.436;7.312;2023-05-23T20:00:33;14.10;99.90
949;DHT22;461;51.436;7.312;2023-05-23T20:02:59;14.10;99.90
949;DHT22;461;51.436;7.312;2023-05-23T20:05:25;14.10;99.90
949;DHT22;461;51.436;7.312;2023-05-23T20:07:57;14.10;99.90
949;DHT22;461;51.436;7.312;2023-05-23T20:10:30;14.00;99.90
949;DHT22;461;51.436;7.312;2023-05-23T20:12:56;14.00;99.90
949;DHT22;461;51.436;7.312;2023-05-23T20:15:22;14.00;99.90
949;DHT22;461;51.436;7.312;2023-05-23T20:17:53;13.90;99.90
949;DHT22;461;51.436;7.312;2023-05-23T20:20:23;13.80;99.90
949;DHT22;461;51.436;7.312;2023-05-23T20:22:48;13.80;99.90
949;DHT22;461;51.436;7.312;2023-05-23T20:25:14;13.60;99.90
949;DHT22;461;51.436;7.312;2023-05-23T20:27:41;13.60;99.90
949;DHT22;461;51.436;7.312;2023-05-23T20:30:08;13.50;99.90
949;DHT22;461;51.436;7.312;2023-05-23T20:32:34;13.40;99.90
949;DHT22;461;51.436;7.312;2023-05-23T20:35:00;13.40;99.90
949;DHT22;461;51.436;7.312;2023-05-23T20:37:25;13.30;99.90
949;DHT22;461;51.436;7.312;2023-05-23T20:39:53;13.40;99.90
949;DHT22;461;51.436;7.312;2023-05-23T20:42:21;13.40;99.90
949;DHT22;461;51.436;7.312;2023-05-23T20:44:47;13.40;99.90
949;DHT22;461;51.436;7.312;2023-05-23T20:47:13;13.40;99.90
949;DHT22;461;51.436;7.312;2023-05-23T20:49:39;13.30;99.90
949;DHT22;461;51.436;7.312;2023-05-23T20:52:06;13.20;99.90
949;DHT22;461;51.436;7.312;2023-05-23T20:54:33;13.20;99.90
949;DHT22;461;51.436;7.312;2023-05-23T20:57:02;13.20;99.90
949;DHT22;461;51.436;7.312;2023-05-23T20:59:28;13.10;99.90
949;DHT22;461;51.436;7.312;2023-05-23T21:01:55;13.20;99.90
949;DHT22;461;51.436;7.312;2023-05-23T21:04:21;13.20;99.90
949;DHT22;461;51.436;7.312;2023-05-23T21:06:47;13.10;99.90
949;DHT22;461;51.436;7.312;2023-05-23T21:09:13;13.00;99.90
949;DHT22;461;51.436;7.312;2023-05-23T21:11:45;13.00;99.90
949;DHT22;461;51.436;7.312;2023-05-23T21:14:10;12.90;99.90
949;DHT22;461;51.436;7.312;2023-05-23T21:16:36;12.90;99.90
949;DHT22;461;51.436;7.312;2023-05-23T22:01:26;12.90;99.90
949;DHT22;461;51.436;7.312;2023-05-23T22:03:53;12.10;99.90
949;DHT22;461;51.436;7.312;2023-05-23T22:06:19;12.00;99.90
949;DHT22;461;51.436;7.312;2023-05-23T22:08:45;12.00;99.90
949;DHT22;461;51.436;7.312;2023-05-23T22:11:11;12.00;99.90
949;DHT22;461;51.436;7.312;2023-05-23T22:13:37;12.00;99.90
949;DHT22;461;51.436;7.312;2023-05-23T22:16:05;12.00;99.90
949;DHT22;461;51.436;7.312;2023-05-23T22:21:04;11.90;99.90
949;DHT22;461;51.436;7.312;2023-05-23T22:23:30;11.70;99.90
949;DHT22;461;51.436;7.312;2023-05-23T22:26:02;11.70;99.90
949;DHT22;461;51.436;7.312;2023-05-23T22:28:29;11.60;99.90
949;DHT22;461;51.436;7.312;2023-05-23T22:31:11;11.70;99.90
949;DHT22;461;51.436;7.312;2023-05-23T22:33:50;11.60;99.90
949;DHT22;461;51.436;7.312;2023-05-23T22:36:16;11.60;99.90
949;DHT22;461;51.436;7.312;2023-05-23T22:38:43;11.60;99.90
949;DHT22;461;51.436;7.312;2023-05-23T22:41:09;11.60;99.90
949;DHT22;461;51.436;7.312;2023-05-23T22:43:35;11.60;99.90
949;DHT22;461;51.436;7.312;2023-05-23T22:46:01;11.60;99.90
949;DHT22;461;51.436;7.312;2023-05-23T22:48:27;11.60;99.90
949;DHT22;461;51.436;7.312;2023-05-23T22:50:58;11.60;99.90
